createdAt,value
2023-03-18T00:00:29.499Z,1.29
2023-03-18T00:02:57.875Z,1.33
2023-03-18T00:05:26.232Z,1.31
2023-03-18T00:07:53.738Z,1.38
2023-03-18T00:10:21.139Z,1.41
2023-03-18T00:12:48.263Z,1.43
2023-03-18T00:15:16.284Z,1.41
2023-03-18T00:17:44.109Z,1.43
2023-03-18T00:20:13.091Z,1.29
2023-03-18T00:22:41.328Z,1.26
2023-03-18T00:25:11.030Z,1.22
2023-03-18T00:27:38.766Z,1.27
2023-03-18T00:30:07.300Z,1.20
2023-03-18T00:32:34.821Z,1.20
2023-03-18T00:35:03.962Z,1.22
2023-03-18T00:37:31.830Z,1.30
2023-03-18T00:40:06.554Z,1.42
2023-03-18T00:42:40.122Z,1.34
2023-03-18T00:45:10.589Z,1.57
2023-03-18T00:47:38.579Z,1.65
2023-03-18T00:50:08.366Z,1.74
2023-03-18T00:52:36.618Z,1.68
2023-03-18T00:55:04.613Z,1.66
2023-03-18T00:57:31.801Z,1.80
2023-03-18T00:59:59.646Z,1.60
2023-03-18T01:02:28.982Z,1.51
2023-03-18T01:04:57.961Z,1.64
2023-03-18T01:07:25.871Z,1.63
2023-03-18T01:09:52.970Z,1.76
2023-03-18T01:12:20.318Z,1.79
2023-03-18T01:14:48.162Z,1.58
2023-03-18T01:17:15.588Z,1.57
2023-03-18T01:19:43.506Z,1.55
2023-03-18T01:22:10.966Z,1.55
2023-03-18T01:24:39.443Z,1.47
2023-03-18T01:27:07.666Z,1.38
2023-03-18T01:29:35.616Z,1.28
2023-03-18T01:32:03.296Z,1.34
2023-03-18T01:34:30.913Z,1.32
2023-03-18T01:36:58.786Z,1.29
2023-03-18T01:39:26.358Z,1.23
2023-03-18T01:41:53.462Z,1.32
2023-03-18T01:44:22.891Z,1.13
2023-03-18T01:46:51.782Z,0.99
2023-03-18T01:49:24.187Z,0.99
2023-03-18T01:51:58.781Z,1.00
2023-03-18T01:54:27.497Z,1.01
2023-03-18T01:56:55.193Z,1.02
2023-03-18T01:59:24.391Z,0.96
2023-03-18T02:02:12.506Z,0.87
2023-03-18T02:04:43.308Z,0.92
2023-03-18T02:07:23.228Z,0.94
2023-03-18T02:09:52.523Z,0.85
2023-03-18T02:12:24.652Z,0.88
2023-03-18T02:14:53.674Z,0.84
2023-03-18T02:17:27.158Z,0.87
2023-03-18T02:20:10.497Z,0.90
2023-03-18T02:22:44.904Z,0.81
2023-03-18T02:25:32.048Z,0.76
2023-03-18T02:28:01.840Z,0.78
2023-03-18T02:30:35.960Z,0.88
2023-03-18T02:33:04.146Z,0.84
2023-03-18T02:35:32.269Z,0.73
2023-03-18T02:37:59.942Z,0.69
2023-03-18T02:40:29.803Z,0.81
2023-03-18T02:43:44.030Z,0.79
2023-03-18T02:46:19.765Z,0.76
2023-03-18T02:48:49.010Z,0.71
2023-03-18T02:51:17.208Z,0.66
2023-03-18T02:53:45.001Z,0.70
2023-03-18T02:56:12.811Z,0.73
2023-03-18T02:58:41.991Z,0.76
2023-03-18T03:01:10.022Z,0.69
2023-03-18T03:03:37.976Z,0.66
2023-03-18T03:06:06.519Z,0.69
2023-03-18T03:08:34.041Z,0.70
2023-03-18T03:11:01.725Z,0.65
2023-03-18T03:13:29.434Z,0.67
2023-03-18T03:15:57.277Z,0.59
2023-03-18T03:18:25.462Z,0.50
2023-03-18T03:20:53.410Z,0.38
2023-03-18T03:23:21.132Z,0.39
2023-03-18T03:25:49.397Z,0.42
2023-03-18T03:28:17.097Z,0.40
2023-03-18T03:30:45.403Z,0.34
2023-03-18T03:33:13.548Z,0.38
2023-03-18T03:35:41.733Z,0.42
2023-03-18T03:38:09.450Z,0.34
2023-03-18T03:40:37.278Z,0.27
2023-03-18T03:43:05.606Z,0.26
2023-03-18T03:45:33.671Z,0.37
2023-03-18T03:48:01.518Z,0.35
2023-03-18T03:50:29.243Z,0.30
2023-03-18T03:52:56.532Z,0.36
2023-03-18T03:55:24.696Z,0.31
2023-03-18T03:57:52.177Z,0.15
2023-03-18T04:00:21.532Z,0.25
2023-03-18T04:02:50.852Z,0.30
2023-03-18T04:05:20.752Z,0.39
2023-03-18T04:07:48.338Z,0.42
2023-03-18T04:10:18.221Z,0.42
2023-03-18T04:12:46.368Z,0.35
2023-03-18T04:15:15.543Z,0.38
2023-03-18T04:17:43.785Z,0.35
2023-03-18T04:20:12.438Z,0.33
2023-03-18T04:22:39.779Z,0.24
2023-03-18T04:25:11.104Z,0.25
2023-03-18T04:27:39.950Z,0.49
2023-03-18T04:30:09.300Z,0.47
2023-03-18T04:32:37.016Z,0.47
2023-03-18T04:35:04.681Z,0.43
2023-03-18T04:37:37.050Z,0.48
2023-03-18T04:40:06.363Z,0.47
2023-03-18T04:42:33.995Z,0.46
2023-03-18T04:45:01.996Z,0.53
2023-03-18T04:47:29.550Z,0.56
2023-03-18T04:49:57.151Z,0.55
2023-03-18T04:52:24.546Z,0.60
2023-03-18T04:54:51.882Z,0.58
2023-03-18T04:57:19.708Z,0.64
2023-03-18T04:59:47.875Z,0.62
2023-03-18T05:02:15.619Z,0.75
2023-03-18T05:04:43.927Z,0.65
2023-03-18T05:07:15.859Z,0.63
2023-03-18T05:09:44.454Z,0.62
2023-03-18T05:12:14.908Z,0.74
2023-03-18T05:14:43.206Z,0.68
2023-03-18T05:17:15.777Z,0.83
2023-03-18T05:19:45.016Z,0.81
2023-03-18T05:22:13.661Z,0.96
2023-03-18T05:24:43.181Z,1.23
2023-03-18T05:27:10.925Z,1.35
2023-03-18T05:29:40.363Z,1.47
2023-03-18T05:32:09.669Z,1.62
2023-03-18T05:34:38.953Z,1.64
2023-03-18T05:37:08.603Z,1.72
2023-03-18T05:39:37.077Z,1.81
2023-03-18T05:42:06.454Z,1.93
2023-03-18T05:44:35.159Z,2.12
2023-03-18T05:47:02.794Z,2.15
2023-03-18T05:49:31.182Z,2.23
2023-03-18T05:51:59.392Z,2.43
2023-03-18T05:54:27.111Z,2.52
2023-03-18T05:56:54.800Z,2.53
2023-03-18T05:59:24.051Z,2.60
2023-03-18T06:01:51.662Z,2.70
2023-03-18T06:04:19.793Z,2.69
2023-03-18T06:06:48.294Z,2.85
2023-03-18T06:09:16.597Z,2.97
2023-03-18T06:11:45.561Z,3.27
2023-03-18T06:14:13.090Z,3.59
2023-03-18T06:16:41.762Z,3.74
2023-03-18T06:19:10.918Z,3.98
2023-03-18T06:21:41.534Z,4.04
2023-03-18T06:24:09.694Z,4.26
2023-03-18T06:26:38.200Z,4.46
2023-03-18T06:29:05.519Z,4.60
2023-03-18T06:31:33.898Z,4.66
2023-03-18T06:34:01.726Z,4.76
2023-03-18T06:36:34.445Z,4.81
2023-03-18T06:39:02.428Z,4.95
2023-03-18T06:41:30.629Z,5.65
2023-03-18T06:43:58.539Z,5.59
2023-03-18T06:46:29.522Z,5.64
2023-03-18T06:48:57.041Z,5.85
2023-03-18T06:51:24.735Z,5.80
2023-03-18T06:53:52.159Z,6.05
2023-03-18T06:56:19.448Z,6.33
2023-03-18T06:58:47.325Z,6.52
2023-03-18T07:01:14.971Z,6.61
2023-03-18T07:03:42.599Z,6.84
2023-03-18T07:06:10.367Z,6.90
2023-03-18T07:08:38.879Z,7.35
2023-03-18T07:11:07.257Z,7.46
2023-03-18T07:13:34.828Z,7.44
2023-03-18T07:16:03.836Z,7.67
2023-03-18T07:18:31.439Z,7.99
2023-03-18T07:20:58.732Z,7.86
2023-03-18T07:23:27.173Z,7.92
2023-03-18T07:25:57.495Z,8.07
2023-03-18T07:28:24.794Z,8.32
2023-03-18T07:30:54.189Z,8.49
2023-03-18T07:33:21.554Z,8.87
2023-03-18T07:35:48.784Z,9.15
2023-03-18T07:38:18.190Z,8.98
2023-03-18T07:40:45.366Z,9.04
2023-03-18T07:43:12.491Z,8.97
2023-03-18T07:45:39.955Z,9.17
2023-03-18T07:48:07.644Z,9.30
2023-03-18T07:50:35.201Z,9.56
2023-03-18T07:53:03.483Z,8.58
2023-03-18T07:55:30.834Z,9.03
2023-03-18T07:57:58.558Z,8.48
2023-03-18T08:00:26.092Z,8.58
2023-03-18T08:02:53.490Z,8.54
2023-03-18T08:05:22.075Z,8.74
2023-03-18T08:07:49.311Z,8.37
2023-03-18T08:10:17.353Z,8.88
2023-03-18T08:12:52.481Z,9.18
2023-03-18T08:15:21.965Z,8.99
2023-03-18T08:17:50.627Z,9.54
2023-03-18T08:20:18.174Z,9.91
2023-03-18T08:22:46.083Z,10.28
2023-03-18T08:25:13.542Z,10.41
2023-03-18T08:27:40.888Z,10.73
2023-03-18T08:30:09.664Z,10.92
2023-03-18T08:32:37.499Z,11.01
2023-03-18T08:35:05.239Z,11.07
2023-03-18T08:37:32.971Z,11.10
2023-03-18T08:40:00.282Z,11.41
2023-03-18T08:42:27.902Z,11.50
2023-03-18T08:44:55.505Z,11.74
2023-03-18T08:47:25.046Z,11.74
2023-03-18T08:49:52.292Z,11.91
2023-03-18T08:52:19.900Z,11.99
2023-03-18T08:54:47.897Z,11.88
2023-03-18T08:57:15.985Z,12.02
2023-03-18T08:59:43.473Z,12.08
2023-03-18T09:02:18.372Z,12.19
2023-03-18T09:04:46.026Z,12.43
2023-03-18T09:07:13.536Z,12.55
2023-03-18T09:09:43.913Z,12.60
2023-03-18T09:12:12.679Z,12.54
2023-03-18T09:14:44.010Z,12.48
2023-03-18T09:17:11.697Z,12.36
2023-03-18T09:19:38.936Z,12.39
2023-03-18T09:22:06.166Z,12.36
2023-03-18T09:24:34.975Z,12.55
2023-03-18T09:27:02.260Z,12.48
2023-03-18T09:29:29.616Z,12.30
2023-03-18T09:32:00.649Z,12.42
2023-03-18T09:34:27.816Z,12.47
2023-03-18T09:36:54.915Z,12.37
2023-03-18T09:39:22.481Z,12.50
2023-03-18T09:42:29.320Z,12.76
2023-03-18T09:45:02.663Z,12.94
2023-03-18T09:47:46.435Z,12.95
2023-03-18T09:50:35.340Z,13.19
2023-03-18T09:53:40.271Z,13.38
2023-03-18T09:56:13.542Z,13.49
2023-03-18T09:58:50.148Z,13.33
2023-03-18T10:01:18.556Z,13.28
2023-03-18T10:04:15.062Z,13.28
2023-03-18T10:06:44.256Z,13.40
2023-03-18T10:09:39.589Z,13.44
2023-03-18T10:12:12.358Z,13.33
2023-03-18T10:14:44.277Z,13.42
2023-03-18T10:17:35.569Z,13.47
2023-03-18T10:20:06.231Z,13.45
2023-03-18T10:22:50.071Z,13.50
2023-03-18T10:25:36.807Z,13.42
2023-03-18T10:28:41.377Z,13.42
2023-03-18T10:31:21.132Z,13.42
2023-03-18T10:33:55.647Z,13.49
2023-03-18T10:36:25.966Z,13.45
2023-03-18T10:38:54.887Z,13.50
2023-03-18T10:41:28.957Z,13.66
2023-03-18T10:43:57.267Z,13.85
2023-03-18T10:46:27.064Z,13.84
2023-03-18T10:49:19.147Z,13.88
2023-03-18T10:51:51.067Z,13.87
2023-03-18T10:54:28.719Z,14.00
2023-03-18T10:56:56.628Z,14.11
2023-03-18T10:59:25.807Z,14.13
2023-03-18T11:02:07.551Z,14.21
2023-03-18T11:05:17.061Z,14.20
2023-03-18T11:08:06.491Z,14.30
2023-03-18T11:10:37.080Z,14.48
2023-03-18T11:13:04.331Z,14.59
2023-03-18T11:15:45.194Z,14.53
2023-03-18T11:18:19.666Z,14.61
2023-03-18T11:20:49.300Z,14.85
2023-03-18T11:23:20.577Z,14.85
2023-03-18T11:25:48.980Z,15.02
2023-03-18T11:28:23.356Z,14.99
2023-03-18T11:30:55.213Z,14.87
2023-03-18T11:33:30.524Z,14.64
2023-03-18T11:35:58.881Z,14.71
2023-03-18T11:38:33.368Z,14.76
2023-03-18T11:41:17.011Z,14.69
2023-03-18T11:44:02.061Z,14.76
2023-03-18T11:46:36.161Z,14.95
2023-03-18T11:49:04.145Z,14.92
2023-03-18T11:51:56.541Z,15.02
2023-03-18T11:54:29.882Z,14.99
2023-03-18T11:57:05.793Z,14.96
2023-03-18T12:00:05.127Z,14.92
2023-03-18T12:02:59.982Z,14.87
2023-03-18T12:05:52.430Z,15.10
2023-03-18T12:08:41.582Z,15.16
2023-03-18T12:11:13.848Z,15.23
2023-03-18T12:14:06.359Z,15.26
2023-03-18T12:16:52.378Z,15.27
2023-03-18T12:19:32.070Z,15.31
2023-03-18T12:22:26.705Z,15.33
2023-03-18T12:25:30.511Z,15.31
2023-03-18T12:28:11.209Z,15.47
2023-03-18T12:30:47.874Z,15.51
2023-03-18T12:33:35.797Z,15.38
2023-03-18T12:36:12.496Z,15.35
2023-03-18T12:39:05.777Z,15.39
2023-03-18T12:41:58.462Z,15.48
2023-03-18T12:44:57.761Z,15.48
2023-03-18T12:47:30.344Z,15.56
2023-03-18T12:50:00.338Z,15.53
2023-03-18T12:52:27.524Z,15.57
2023-03-18T12:55:05.798Z,15.75
2023-03-18T12:57:36.186Z,15.86
2023-03-18T13:00:10.532Z,15.86
2023-03-18T13:02:54.351Z,15.83
2023-03-18T13:05:31.696Z,15.77
2023-03-18T13:08:21.181Z,15.74
2023-03-18T13:10:54.918Z,15.69
2023-03-18T13:13:22.303Z,15.66
2023-03-18T13:15:55.196Z,15.87
2023-03-18T13:18:27.287Z,15.88
2023-03-18T13:20:58.652Z,15.80
2023-03-18T13:23:44.352Z,15.83
2023-03-18T13:26:17.225Z,15.83
2023-03-18T13:29:06.064Z,15.64
2023-03-18T13:31:42.691Z,15.68
2023-03-18T13:34:32.582Z,15.77
2023-03-18T13:37:12.402Z,15.93
2023-03-18T13:40:22.886Z,15.74
2023-03-18T13:42:51.368Z,15.64
2023-03-18T13:45:25.621Z,15.69
2023-03-18T13:47:59.117Z,15.74
2023-03-18T13:50:34.673Z,15.78
2023-03-18T13:53:03.763Z,15.91
2023-03-18T13:55:33.043Z,15.84
2023-03-18T13:58:19.200Z,15.66
2023-03-18T14:00:55.575Z,15.70
2023-03-18T14:03:51.686Z,15.68
2023-03-18T14:06:23.757Z,15.79
2023-03-18T14:08:52.703Z,15.78
2023-03-18T14:11:20.320Z,15.92
2023-03-18T14:13:47.458Z,16.04
2023-03-18T14:16:20.869Z,16.07
2023-03-18T14:19:10.157Z,16.16
2023-03-18T14:21:48.628Z,16.34
2023-03-18T14:24:22.237Z,16.34
2023-03-18T14:26:58.814Z,16.49
2023-03-18T14:29:37.511Z,16.50
2023-03-18T14:32:08.520Z,16.52
2023-03-18T14:34:54.750Z,16.52
2023-03-18T14:37:31.590Z,16.51
2023-03-18T14:40:13.979Z,16.24
2023-03-18T14:43:00.964Z,16.19
2023-03-18T14:45:31.380Z,16.12
2023-03-18T14:48:01.608Z,15.99
2023-03-18T14:50:29.522Z,16.01
2023-03-18T14:53:12.565Z,16.16
2023-03-18T14:55:40.452Z,16.25
2023-03-18T14:58:22.327Z,16.27
2023-03-18T15:01:12.354Z,16.36
2023-03-18T15:03:43.577Z,16.31
2023-03-18T15:06:26.900Z,16.29
2023-03-18T15:09:04.730Z,16.28
2023-03-18T15:11:39.581Z,16.21
2023-03-18T15:14:31.027Z,16.12
2023-03-18T15:17:04.718Z,16.06
2023-03-18T15:19:32.643Z,15.88
2023-03-18T15:22:05.795Z,15.96
2023-03-18T15:24:33.485Z,16.00
2023-03-18T15:27:10.881Z,15.98
2023-03-18T15:29:51.022Z,15.83
2023-03-18T15:32:26.483Z,15.86
2023-03-18T15:34:58.128Z,15.83
2023-03-18T15:37:42.752Z,15.89
2023-03-18T15:40:17.009Z,15.87
2023-03-18T15:42:45.411Z,15.87
2023-03-18T15:45:19.259Z,15.72
2023-03-18T15:47:47.480Z,15.62
2023-03-18T15:50:26.293Z,15.53
2023-03-18T15:53:19.766Z,15.44
2023-03-18T15:55:52.931Z,15.40
2023-03-18T15:58:29.325Z,15.35
2023-03-18T16:00:57.267Z,15.21
2023-03-18T16:03:27.162Z,14.99
2023-03-18T16:05:55.225Z,14.81
2023-03-18T16:08:22.926Z,14.75
2023-03-18T16:10:53.137Z,14.71
2023-03-18T16:13:33.322Z,14.61
2023-03-18T16:16:01.108Z,14.58
2023-03-18T16:18:28.282Z,14.60
2023-03-18T16:20:57.299Z,14.63
2023-03-18T16:23:24.732Z,14.51
2023-03-18T16:25:53.221Z,14.40
2023-03-18T16:28:23.126Z,14.17
2023-03-18T16:30:53.204Z,13.98
2023-03-18T16:33:21.052Z,13.71
2023-03-18T16:35:55.300Z,13.61
2023-03-18T16:38:23.008Z,13.57
2023-03-18T16:40:50.662Z,13.54
2023-03-18T16:43:19.796Z,13.36
2023-03-18T16:45:48.481Z,13.14
2023-03-18T16:48:18.833Z,12.82
2023-03-18T16:50:48.412Z,12.71
2023-03-18T16:53:18.329Z,12.60
2023-03-18T16:55:47.426Z,12.41
2023-03-18T16:58:22.488Z,12.22
2023-03-18T17:00:51.169Z,11.84
2023-03-18T17:03:19.178Z,11.68
2023-03-18T17:05:50.496Z,11.50
2023-03-18T17:08:19.516Z,11.33
2023-03-18T17:10:49.348Z,11.09
2023-03-18T17:13:26.004Z,10.85
2023-03-18T17:15:53.586Z,10.62
2023-03-18T17:18:22.824Z,10.43
2023-03-18T17:20:50.637Z,10.23
2023-03-18T17:23:20.526Z,10.07
2023-03-18T17:25:50.967Z,10.01
2023-03-18T17:28:23.725Z,9.88
2023-03-18T17:30:51.356Z,9.63
2023-03-18T17:33:31.102Z,9.50
2023-03-18T17:36:00.349Z,9.47
2023-03-18T17:38:28.785Z,9.38
2023-03-18T17:40:56.691Z,9.23
2023-03-18T17:43:36.929Z,9.16
2023-03-18T17:46:06.172Z,9.00
2023-03-18T17:48:35.223Z,8.91
2023-03-18T17:51:10.773Z,8.90
2023-03-18T17:53:49.468Z,8.86
2023-03-18T17:56:18.377Z,8.86
2023-03-18T17:58:47.753Z,8.77
2023-03-18T18:01:16.426Z,8.57
2023-03-18T18:03:44.217Z,8.52
2023-03-18T18:06:22.340Z,8.43
2023-03-18T18:08:50.123Z,8.39
2023-03-18T18:11:32.232Z,8.35
2023-03-18T18:14:13.033Z,8.28
2023-03-18T18:16:40.662Z,8.29
2023-03-18T18:19:10.366Z,8.26
2023-03-18T18:21:37.700Z,8.22
2023-03-18T18:24:14.575Z,8.15
2023-03-18T18:26:41.959Z,7.97
2023-03-18T18:29:14.458Z,7.91
2023-03-18T18:31:42.042Z,7.86
2023-03-18T18:34:09.401Z,7.74
2023-03-18T18:36:36.892Z,7.60
2023-03-18T18:39:05.429Z,7.54
2023-03-18T18:41:33.459Z,7.50
2023-03-18T18:44:00.622Z,7.44
2023-03-18T18:46:28.900Z,7.31
2023-03-18T18:48:56.615Z,7.32
2023-03-18T18:51:24.196Z,7.19
2023-03-18T18:53:53.695Z,7.18
2023-03-18T18:56:34.248Z,7.09
2023-03-18T18:59:05.192Z,7.05
2023-03-18T19:01:32.328Z,7.02
2023-03-18T19:03:59.429Z,6.89
2023-03-18T19:06:29.257Z,6.82
2023-03-18T19:08:58.558Z,6.74
2023-03-18T19:11:26.660Z,6.66
2023-03-18T19:13:55.352Z,6.71
2023-03-18T19:16:36.248Z,6.67
2023-03-18T19:19:03.681Z,6.67
2023-03-18T19:21:31.230Z,6.60
2023-03-18T19:23:58.662Z,6.71
2023-03-18T19:26:26.085Z,6.60
2023-03-18T19:28:59.006Z,6.60
2023-03-18T19:31:30.650Z,6.56
2023-03-18T19:33:59.734Z,6.57
2023-03-18T19:36:32.658Z,6.58
2023-03-18T19:39:01.475Z,6.61
2023-03-18T19:41:29.491Z,6.59
2023-03-18T19:44:04.089Z,6.52
2023-03-18T19:46:37.097Z,6.47
2023-03-18T19:49:33.221Z,6.45
2023-03-18T19:52:16.954Z,6.40
2023-03-18T19:54:44.476Z,6.35
2023-03-18T19:57:32.518Z,6.36
2023-03-18T20:00:01.095Z,6.34
2023-03-18T20:02:33.917Z,6.35
2023-03-18T20:05:03.768Z,6.39
2023-03-18T20:07:35.338Z,6.38
2023-03-18T20:10:02.791Z,6.33
2023-03-18T20:12:42.973Z,6.20
2023-03-18T20:15:22.415Z,6.19
2023-03-18T20:17:51.000Z,6.11
2023-03-18T20:20:19.611Z,6.09
2023-03-18T20:22:52.384Z,6.07
2023-03-18T20:25:24.381Z,5.98
2023-03-18T20:27:53.575Z,6.00
2023-03-18T20:30:27.780Z,6.10
2023-03-18T20:32:55.568Z,6.06
2023-03-18T20:35:28.514Z,6.02
2023-03-18T20:37:57.463Z,5.99
2023-03-18T20:40:29.273Z,6.00
2023-03-18T20:42:56.881Z,5.95
2023-03-18T20:45:24.943Z,5.97
2023-03-18T20:47:52.504Z,5.92
2023-03-18T20:50:21.966Z,5.94
2023-03-18T20:52:49.391Z,6.05
2023-03-18T20:55:31.789Z,6.09
2023-03-18T20:58:00.587Z,6.12
2023-03-18T21:00:31.156Z,6.20
2023-03-18T21:03:02.368Z,6.32
2023-03-18T21:05:29.844Z,6.33
2023-03-18T21:07:57.065Z,6.11
2023-03-18T21:10:26.218Z,6.10
2023-03-18T21:12:54.060Z,6.02
2023-03-18T21:15:24.191Z,5.93
2023-03-18T21:17:51.560Z,5.88
2023-03-18T21:20:22.954Z,5.75
2023-03-18T21:22:50.526Z,5.72
2023-03-18T21:25:22.994Z,5.77
2023-03-18T21:27:50.906Z,5.71
2023-03-18T21:30:21.510Z,5.61
2023-03-18T21:32:50.567Z,5.65
2023-03-18T21:35:26.125Z,5.55
2023-03-18T21:37:53.627Z,5.43
2023-03-18T21:40:23.591Z,5.34
2023-03-18T21:42:51.481Z,5.25
2023-03-18T21:45:21.334Z,5.17
2023-03-18T21:47:48.836Z,5.06
2023-03-18T21:50:26.256Z,5.00
2023-03-18T21:52:54.538Z,4.82
2023-03-18T21:55:22.553Z,4.78
2023-03-18T21:57:49.776Z,4.77
2023-03-18T22:00:20.097Z,4.68
2023-03-18T22:02:48.051Z,4.69
2023-03-18T22:05:20.933Z,4.61
2023-03-18T22:07:50.302Z,4.60
2023-03-18T22:10:22.917Z,4.53
2023-03-18T22:12:50.767Z,4.45
2023-03-18T22:15:23.716Z,4.52
2023-03-18T22:17:51.820Z,4.40
2023-03-18T22:20:19.059Z,4.40
2023-03-18T22:22:47.392Z,4.41
2023-03-18T22:25:24.477Z,4.45
2023-03-18T22:27:53.840Z,4.29
2023-03-18T22:30:21.601Z,4.30
2023-03-18T22:32:48.853Z,4.21
2023-03-18T22:35:21.394Z,4.18
2023-03-18T22:37:49.748Z,4.11
2023-03-18T22:40:22.281Z,4.01
2023-03-18T22:42:52.195Z,4.02
2023-03-18T22:45:22.842Z,4.02
2023-03-18T22:47:51.836Z,3.91
2023-03-18T22:50:19.674Z,3.85
2023-03-18T22:52:48.657Z,3.79
2023-03-18T22:55:22.472Z,3.74
2023-03-18T22:57:50.711Z,3.75
2023-03-18T23:00:35.570Z,3.66
2023-03-18T23:03:03.174Z,3.60
2023-03-18T23:05:30.741Z,3.60
2023-03-18T23:07:58.348Z,3.55
2023-03-18T23:10:25.625Z,3.51
2023-03-18T23:12:53.249Z,3.49
2023-03-18T23:15:22.636Z,3.39
2023-03-18T23:17:50.055Z,3.45
2023-03-18T23:20:18.403Z,3.42
2023-03-18T23:22:45.831Z,3.39
2023-03-18T23:25:17.740Z,3.36
2023-03-18T23:27:45.468Z,3.31
2023-03-18T23:30:13.667Z,3.24
2023-03-18T23:32:41.414Z,3.21
2023-03-18T23:35:09.708Z,3.16
2023-03-18T23:37:36.914Z,3.17
2023-03-18T23:40:06.122Z,3.08
2023-03-18T23:42:33.577Z,3.06
2023-03-18T23:45:00.877Z,2.95
2023-03-18T23:47:28.134Z,2.90
2023-03-18T23:49:55.684Z,2.94
2023-03-18T23:52:23.091Z,3.05
2023-03-18T23:54:50.269Z,2.98
2023-03-18T23:57:17.809Z,2.87
2023-03-18T23:59:45.029Z,2.90
